Time;durP1;ratioP1;P1;durP2;ratioP2;P2;SDS_P1;SDS_P2;PMS_P1;PMS_P2;Temp;Humidity;BMP_temperature;BMP_pressure;BME280_temperature;BME280_humidity;BME280_pressure;Samples;Min_cycle;Max_cycle;Signal;HPM_P1;HPM_P2
2021/12/18 00:00:38;;;;;;;10.80;3.90;;;;;;;-0.88;100.00;99522.59;4839570;29;20077;-64
2021/12/18 00:03:04;;;;;;;10.25;4.05;;;;;;;-0.73;100.00;99559.81;4843400;29;20058;-64
2021/12/18 00:05:30;;;;;;;9.48;3.95;;;;;;;-0.76;100.00;99554.66;4843365;29;20512;-64
2021/12/18 00:07:56;;;;;;;9.07;3.78;;;;;;;-0.70;100.00;99557.91;4857295;29;20144;-64
2021/12/18 00:10:23;;;;;;;10.80;4.07;;;;;;;-0.90;100.00;99530.66;4841701;29;20061;-64
2021/12/18 00:12:52;;;;;;;11.02;3.97;;;;;;;-0.73;100.00;99554.50;4842884;29;20459;-64
2021/12/18 00:15:20;;;;;;;9.57;3.63;;;;;;;-0.94;100.00;99517.66;4843027;29;20117;-64
2021/12/18 00:17:45;;;;;;;10.40;3.72;;;;;;;-0.75;100.00;99556.38;4841152;29;20069;-63
2021/12/18 00:20:16;;;;;;;12.60;4.88;;;;;;;-0.73;100.00;99565.13;4842686;29;20391;-64
2021/12/18 00:22:43;;;;;;;11.40;4.20;;;;;;;-0.74;100.00;99563.38;4842658;29;20065;-65
2021/12/18 00:25:09;;;;;;;12.55;4.95;;;;;;;-0.74;100.00;99562.53;4841357;29;20391;-62
2021/12/18 00:27:35;;;;;;;12.93;4.70;;;;;;;-0.74;100.00;99557.22;4841281;29;20240;-64
2021/12/18 00:30:02;;;;;;;10.13;4.13;;;;;;;-0.76;100.00;99565.28;4841022;29;20187;-63
2021/12/18 00:32:29;;;;;;;12.20;4.78;;;;;;;-0.93;100.00;99541.44;4842975;29;20062;-63
2021/12/18 00:34:54;;;;;;;12.02;4.60;;;;;;;-1.09;100.00;99514.03;4825696;29;20437;-64
2021/12/18 00:37:20;;;;;;;12.07;4.13;;;;;;;-0.83;100.00;99566.56;4840993;29;20120;-64
2021/12/18 00:39:55;;;;;;;10.80;4.55;;;;;;;-0.87;100.00;99561.50;4842497;29;20058;-62
2021/12/18 00:42:41;;;;;;;11.23;4.85;;;;;;;-0.91;100.00;99558.16;4842255;29;20080;-63
2021/12/18 00:45:14;;;;;;;13.18;4.40;;;;;;;-0.83;100.00;99571.00;4841204;29;20120;-63
2021/12/18 00:47:40;;;;;;;11.45;4.32;;;;;;;-0.82;100.00;99570.91;4841012;29;20144;-63
2021/12/18 00:50:09;;;;;;;11.57;5.05;;;;;;;-0.82;100.00;99567.41;4840977;29;20065;-63
2021/12/18 00:52:35;;;;;;;10.70;4.35;;;;;;;-0.81;100.00;99567.31;4842432;29;20072;-63
2021/12/18 00:55:00;;;;;;;12.73;4.95;;;;;;;-0.85;100.00;99571.06;4840443;29;20050;-63
2021/12/18 00:57:26;;;;;;;13.10;5.13;;;;;;;-0.92;100.00;99564.38;4855985;29;20089;-63
2021/12/18 00:59:54;;;;;;;12.20;4.90;;;;;;;-0.86;100.00;99569.38;4841862;29;20086;-63
2021/12/18 01:02:20;;;;;;;11.75;5.22;;;;;;;-0.85;100.00;99564.91;4842190;29;20061;-64
2021/12/18 01:04:46;;;;;;;15.15;5.10;;;;;;;-0.85;100.00;99571.06;4842048;29;20054;-64
2021/12/18 01:07:12;;;;;;;13.30;4.65;;;;;;;-0.91;100.00;99562.59;4842006;29;20061;-64
2021/12/18 01:12:10;;;;;;;13.75;5.32;;;;;;;-0.82;100.00;99570.91;4841445;29;20141;-62
2021/12/18 01:14:50;;;;;;;13.93;4.97;;;;;;;-0.80;100.00;99578.81;4841915;29;20046;-63
2021/12/18 01:25:12;;;;;;;13.82;5.90;;;;;;;-0.82;100.00;99573.56;4843195;29;20185;-64
2021/12/18 01:27:38;;;;;;;13.20;5.43;;;;;;;-0.83;100.00;99573.66;4857007;29;20064;-64
2021/12/18 01:30:05;;;;;;;12.43;4.75;;;;;;;-0.85;100.00;99571.06;4840448;29;20171;-63
2021/12/18 01:32:31;;;;;;;12.65;4.40;;;;;;;-0.84;100.00;99578.13;4841511;29;20482;-63
2021/12/18 01:34:57;;;;;;;11.02;4.35;;;;;;;-0.82;100.00;99568.25;4841415;29;20046;-63
2021/12/18 01:37:23;;;;;;;11.13;4.13;;;;;;;-0.81;100.00;99572.63;4839950;29;20066;-63
2021/12/18 01:39:51;;;;;;;10.70;3.90;;;;;;;-0.91;100.00;99544.88;4841537;29;20062;-63
2021/12/18 01:42:54;;;;;;;10.40;4.20;;;;;;;-0.75;100.00;99567.00;4841488;29;20054;-63
2021/12/18 01:45:15;;;;;;;9.63;3.70;;;;;;;-0.83;100.00;99555.94;4841535;29;20138;-62
2021/12/18 01:53:11;;;;;;;11.27;3.58;;;;;;;-0.81;100.00;99572.63;4853201;29;20070;-63
2021/12/18 01:55:39;;;;;;;11.10;4.30;;;;;;;-0.93;100.00;99557.34;4841155;29;20069;-64
2021/12/18 01:58:06;;;;;;;11.93;4.55;;;;;;;-0.84;100.00;99572.81;4841247;29;20095;-62
2021/12/18 02:00:40;;;;;;;11.15;5.00;;;;;;;-0.84;100.00;99567.50;4855057;29;20495;-64
2021/12/18 02:03:07;;;;;;;11.45;4.07;;;;;;;-0.88;100.00;99543.84;4841110;29;20113;-64
2021/12/18 02:05:33;;;;;;;11.82;4.40;;;;;;;-0.78;100.00;99572.47;4841254;29;20073;-64
2021/12/18 02:07:59;;;;;;;10.75;4.20;;;;;;;-0.82;100.00;99578.03;4841104;29;20061;-63
2021/12/18 02:10:29;;;;;;;10.88;4.90;;;;;;;-0.83;100.00;99582.47;4841037;29;20149;-64
2021/12/18 02:13:20;;;;;;;13.15;4.55;;;;;;;-0.83;100.00;99582.47;4855138;29;20062;-63
2021/12/18 02:21:19;;;;;;;11.05;4.55;;;;;;;-0.70;100.00;99595.09;4840454;29;20061;-62
2021/12/18 02:23:45;;;;;;;13.90;4.97;;;;;;;-0.74;100.00;99584.63;4853312;29;20521;-63
2021/12/18 02:26:12;;;;;;;11.63;4.68;;;;;;;-0.70;100.00;99587.13;4840419;29;20096;-64
2021/12/18 02:28:39;;;;;;;13.55;4.78;;;;;;;-0.87;100.00;99556.19;4854520;29;20073;-64
2021/12/18 02:31:05;;;;;;;11.38;4.57;;;;;;;-0.73;100.00;99581.06;4840248;29;20144;-64
2021/12/18 02:33:31;;;;;;;12.73;4.90;;;;;;;-0.78;100.00;99588.38;4840738;29;20164;-63
2021/12/18 02:35:58;;;;;;;12.23;4.95;;;;;;;-0.81;100.00;99588.53;4840335;29;20077;-63
2021/12/18 02:38:45;;;;;;;13.25;4.85;;;;;;;-0.81;100.00;99588.53;4840538;29;20062;-62
2021/12/18 02:41:35;;;;;;;11.93;4.85;;;;;;;-0.89;100.00;99580.13;4840216;29;20430;-64
2021/12/18 02:44:04;;;;;;;11.43;5.07;;;;;;;-0.86;100.00;99590.59;4839872;29;20067;-64
2021/12/18 02:46:30;;;;;;;11.45;4.80;;;;;;;-0.79;100.00;99597.28;4840338;29;20106;-64
2021/12/18 02:48:57;;;;;;;12.25;4.68;;;;;;;-0.79;100.00;99591.97;4854146;29;20057;-64
2021/12/18 02:51:24;;;;;;;11.88;4.45;;;;;;;-0.77;100.00;99590.13;4840276;29;20062;-63
2021/12/18 02:53:52;;;;;;;12.18;4.75;;;;;;;-0.75;100.00;99593.53;4838819;29;20130;-63
2021/12/18 02:56:23;;;;;;;11.80;4.95;;;;;;;-0.80;100.00;99595.59;4854100;29;20053;-63
2021/12/18 02:58:50;;;;;;;12.38;5.30;;;;;;;-0.82;100.00;99602.75;4854005;29;20111;-63
2021/12/18 03:01:20;;;;;;;13.13;5.43;;;;;;;-0.95;100.00;99576.94;4839900;29;20060;-62
2021/12/18 03:03:47;;;;;;;13.77;4.45;;;;;;;-0.78;100.00;99599.00;4840014;29;20141;-63
2021/12/18 03:27:17;;;;;;;10.52;3.65;;;;;;;-1.03;100.00;99603.88;4853519;29;20479;-62
2021/12/18 03:29:43;;;;;;;10.00;3.80;;;;;;;-1.05;100.00;99595.16;4839390;29;20093;-63
2021/12/18 03:32:09;;;;;;;10.43;3.35;;;;;;;-1.02;100.00;99595.00;4838312;29;20251;-64
2021/12/18 03:34:35;;;;;;;7.80;2.85;;;;;;;-1.07;100.00;99597.00;4839390;29;20065;-62
2021/12/18 03:37:01;;;;;;;10.48;3.38;;;;;;;-1.10;100.00;99607.78;4838092;29;20421;-62
2021/12/18 03:39:26;;;;;;;9.80;3.10;;;;;;;-1.10;100.00;99602.47;4838150;29;20062;-64
2021/12/18 03:41:53;;;;;;;9.77;3.40;;;;;;;-1.13;100.00;99605.28;4839322;29;20065;-63
2021/12/18 03:44:19;;;;;;;9.43;3.20;;;;;;;-1.13;100.00;99607.94;4838186;29;20061;-62
2021/12/18 03:46:45;;;;;;;8.43;2.75;;;;;;;-1.24;100.00;99596.09;4823103;29;20054;-63
2021/12/18 03:49:11;;;;;;;7.88;2.30;;;;;;;-1.47;100.00;99562.78;4839571;29;20066;-64
2021/12/18 03:51:37;;;;;;;8.07;2.17;;;;;;;-1.26;100.00;99602.41;4839354;29;20054;-62
2021/12/18 03:54:03;;;;;;;7.60;2.10;;;;;;;-1.22;100.00;99610.13;4839393;29;20507;-63
2021/12/18 03:56:29;;;;;;;7.50;1.60;;;;;;;-1.40;99.86;99581.88;4853372;29;20073;-64
2021/12/18 03:58:55;;;;;;;7.50;2.28;;;;;;;-1.52;99.20;99569.28;4838468;29;20567;-64
2021/12/18 04:01:21;;;;;;;8.20;1.73;;;;;;;-1.54;99.00;99576.41;4837988;29;20069;-64
2021/12/18 04:03:46;;;;;;;6.75;1.83;;;;;;;-1.59;99.34;99583.75;4838336;29;20110;-64
2021/12/18 04:06:12;;;;;;;7.50;1.80;;;;;;;-1.39;98.03;99610.16;4837594;29;20061;-64
2021/12/18 04:08:38;;;;;;;7.00;1.88;;;;;;;-1.46;98.31;99606.09;4839216;29;20157;-65
2021/12/18 04:11:04;;;;;;;7.10;1.52;;;;;;;-1.48;98.81;99610.59;4853495;29;20174;-62
2021/12/18 04:13:30;;;;;;;6.25;1.67;;;;;;;-1.50;97.04;99620.41;4837915;29;20575;-63
2021/12/18 04:15:57;;;;;;;9.35;1.73;;;;;;;-1.53;97.38;99616.13;4853329;29;20396;-62
2021/12/18 04:18:22;;;;;;;7.85;1.60;;;;;;;-1.54;97.72;99614.38;4839359;29;20121;-63
2021/12/18 04:20:48;;;;;;;9.88;1.50;;;;;;;-1.68;97.30;99587.75;4852907;29;20078;-63
2021/12/18 04:23:14;;;;;;;5.28;1.40;;;;;;;-1.50;95.57;99623.03;4822929;29;20053;-63
2021/12/18 04:25:40;;;;;;;6.15;1.50;;;;;;;-1.53;93.81;99631.19;4852642;29;20065;-63
2021/12/18 04:28:06;;;;;;;5.85;1.33;;;;;;;-1.70;90.74;99581.63;4839362;29;20053;-63
2021/12/18 04:30:33;;;;;;;4.90;1.20;;;;;;;-1.53;88.68;99612.63;4837939;29;20443;-64
2021/12/18 04:32:58;;;;;;;6.25;1.58;;;;;;;-1.46;84.81;99616.69;4839334;29;20070;-63
2021/12/18 04:35:25;;;;;;;4.70;1.40;;;;;;;-1.30;82.55;99628.22;4838320;29;20065;-63
2021/12/18 04:37:51;;;;;;;5.10;1.13;;;;;;;-1.36;83.54;99625.88;4838773;29;20148;-64
2021/12/18 04:40:16;;;;;;;5.30;1.30;;;;;;;-1.33;84.63;99635.47;4837729;29;20321;-64
2021/12/18 04:42:42;;;;;;;4.88;1.30;;;;;;;-1.33;84.90;99632.81;4839372;29;20454;-63
2021/12/18 04:45:08;;;;;;;7.15;1.70;;;;;;;-1.32;84.53;99624.78;4839166;29;20066;-64
2021/12/18 04:47:34;;;;;;;7.40;2.00;;;;;;;-1.32;85.92;99624.78;4841647;29;20069;-64
2021/12/18 04:50:00;;;;;;;7.50;1.48;;;;;;;-1.36;84.63;99617.91;4842508;29;20069;-63
2021/12/18 04:52:26;;;;;;;8.77;1.80;;;;;;;-1.33;85.36;99623.06;4826180;29;20513;-64
2021/12/18 04:54:52;;;;;;;7.45;1.90;;;;;;;-1.33;84.47;99623.06;4856362;29;20141;-63
2021/12/18 04:57:18;;;;;;;8.95;2.28;;;;;;;-1.36;84.29;99625.88;4842333;29;20060;-64
2021/12/18 04:59:44;;;;;;;7.20;2.03;;;;;;;-1.41;85.65;99619.94;4840789;29;20061;-64
2021/12/18 05:02:15;;;;;;;6.60;1.63;;;;;;;-1.36;83.43;99617.91;4842355;29;20058;-64
2021/12/18 05:04:41;;;;;;;8.30;2.05;;;;;;;-1.31;82.42;99621.22;4856286;29;20121;-64
2021/12/18 05:07:10;;;;;;;6.07;1.58;;;;;;;-1.35;80.73;99602.88;4841902;29;20144;-64
2021/12/18 05:09:37;;;;;;;7.78;1.70;;;;;;;-1.22;80.91;99619.88;4810475;29;20092;-64
2021/12/18 05:12:03;;;;;;;7.75;2.53;;;;;;;-1.25;81.71;99620.88;4840624;29;20058;-63
2021/12/18 05:14:29;;;;;;;7.53;2.22;;;;;;;-1.22;81.54;99626.03;4841957;29;20144;-63
2021/12/18 05:16:55;;;;;;;6.60;1.90;;;;;;;-1.20;82.97;99625.13;4840667;29;20149;-63
2021/12/18 05:19:21;;;;;;;8.10;2.13;;;;;;;-1.25;83.09;99626.19;4825162;29;20136;-64
2021/12/18 05:21:47;;;;;;;7.30;2.00;;;;;;;-1.23;83.75;99629.63;4842357;29;20089;-65
2021/12/18 05:24:13;;;;;;;8.35;2.20;;;;;;;-1.27;82.52;99628.06;4841810;29;20066;-64
2021/12/18 05:26:39;;;;;;;8.88;2.00;;;;;;;-1.18;83.30;99636.50;4840403;29;20093;-63
2021/12/18 05:29:05;;;;;;;7.18;1.88;;;;;;;-1.26;83.29;99628.94;4841837;29;20086;-63
2021/12/18 05:31:31;;;;;;;7.47;2.00;;;;;;;-1.30;82.31;99628.22;4840439;29;20466;-63
2021/12/18 05:34:00;;;;;;;7.18;2.13;;;;;;;-1.30;83.31;99617.63;4840541;29;20118;-64
2021/12/18 05:36:36;;;;;;;7.70;2.10;;;;;;;-1.31;83.02;99620.38;4842206;29;20510;-64
2021/12/18 05:39:09;;;;;;;9.55;2.15;;;;;;;-1.42;84.70;99607.63;4840220;29;20066;-65
2021/12/18 05:41:35;;;;;;;6.35;1.80;;;;;;;-1.24;84.19;99627.94;4840043;29;20064;-64
2021/12/18 05:44:02;;;;;;;8.30;1.88;;;;;;;-1.35;85.62;99626.72;4841189;29;20496;-64
2021/12/18 05:46:28;;;;;;;8.18;2.25;;;;;;;-1.33;86.47;99628.38;4840035;29;20119;-64
2021/12/18 05:48:54;;;;;;;7.70;1.67;;;;;;;-1.49;87.76;99623.00;4841523;29;20111;-63
2021/12/18 05:51:20;;;;;;;7.63;2.22;;;;;;;-1.44;88.19;99636.00;4855604;29;20093;-65
2021/12/18 05:53:46;;;;;;;7.55;2.03;;;;;;;-1.49;88.63;99628.28;4841264;29;20061;-65
2021/12/18 05:56:12;;;;;;;10.32;2.47;;;;;;;-1.43;89.78;99627.13;4855533;29;20429;-65
2021/12/18 05:58:38;;;;;;;9.45;2.28;;;;;;;-1.46;90.09;99629.94;4855156;29;20503;-64
2021/12/18 06:01:04;;;;;;;8.40;2.20;;;;;;;-1.49;89.40;99632.75;4854841;29;20164;-64
2021/12/18 06:03:30;;;;;;;8.32;2.35;;;;;;;-1.46;88.30;99644.06;4854847;29;20125;-64
2021/12/18 06:05:55;;;;;;;8.10;2.50;;;;;;;-1.51;89.59;99631.94;4841004;29;20081;-64
2021/12/18 06:08:21;;;;;;;10.02;2.65;;;;;;;-1.52;89.88;99624.94;4825204;29;20057;-64
2021/12/18 06:10:47;;;;;;;11.00;2.88;;;;;;;-1.50;89.65;99628.34;4825164;29;20073;-64
2021/12/18 06:13:14;;;;;;;8.30;2.53;;;;;;;-1.70;89.52;99592.25;4854974;29;20065;-65
2021/12/18 06:15:39;;;;;;;11.10;3.10;;;;;;;-1.61;89.32;99601.50;4854875;29;20707;-65
2021/12/18 06:18:05;;;;;;;11.35;3.10;;;;;;;-1.53;89.53;99631.19;4841160;29;20102;-64
2021/12/18 06:20:31;;;;;;;10.57;3.45;;;;;;;-1.49;89.38;99627.44;4839460;29;20054;-64
2021/12/18 06:22:57;;;;;;;11.95;3.42;;;;;;;-1.50;89.06;99644.25;4841213;29;20509;-64
2021/12/18 06:25:23;;;;;;;9.23;3.10;;;;;;;-1.48;87.93;99650.34;4839532;29;20218;-64
2021/12/18 06:27:48;;;;;;;10.88;3.78;;;;;;;-1.64;88.10;99626.41;4854885;29;20066;-64
2021/12/18 06:30:18;;;;;;;12.23;4.05;;;;;;;-1.56;87.26;99639.28;4820254;29;20632;-65
2021/12/18 06:32:44;;;;;;;12.20;4.30;;;;;;;-1.49;86.45;99638.03;4847063;29;20077;-65
2021/12/18 06:35:10;;;;;;;13.10;4.03;;;;;;;-1.53;87.47;99641.78;4828919;29;20054;-64
2021/12/18 06:37:37;;;;;;;12.30;3.80;;;;;;;-1.48;87.36;99645.06;4837559;29;20065;-64
2021/12/18 06:40:04;;;;;;;11.88;3.63;;;;;;;-1.41;87.86;99640.31;4821074;29;20557;-65
2021/12/18 06:42:30;;;;;;;14.55;3.80;;;;;;;-1.57;87.66;99621.63;4837633;29;20058;-66
2021/12/18 06:44:56;;;;;;;12.38;4.03;;;;;;;-1.53;85.53;99625.88;4852725;29;20054;-65
2021/12/18 06:47:22;;;;;;;12.18;4.22;;;;;;;-1.60;84.19;99624.47;4837291;29;20054;-65
2021/12/18 06:49:48;;;;;;;12.38;4.10;;;;;;;-1.43;84.05;99642.16;4836775;29;20069;-65
2021/12/18 06:52:13;;;;;;;14.75;5.30;;;;;;;-1.43;82.62;99637.72;4837322;29;20438;-64
2021/12/18 06:54:39;;;;;;;16.88;4.32;;;;;;;-1.56;83.15;99605.66;4838663;29;20091;-64
2021/12/18 06:57:05;;;;;;;14.45;4.72;;;;;;;-1.34;83.04;99631.97;4846613;29;20080;-66
2021/12/18 06:59:31;;;;;;;17.05;4.90;;;;;;;-1.38;84.27;99635.72;4836414;29;20435;-65
2021/12/18 07:01:57;;;;;;;11.82;4.07;;;;;;;-1.36;83.81;99644.44;4835362;29;20056;-64
2021/12/18 07:04:24;;;;;;;16.88;5.10;;;;;;;-1.36;84.38;99633.81;4835843;29;20081;-65
2021/12/18 07:06:52;;;;;;;14.55;4.22;;;;;;;-1.31;81.85;99642.44;4834759;29;20054;-70
2021/12/18 07:09:19;;;;;;;14.43;5.13;;;;;;;-1.44;82.24;99635.16;4827108;29;20061;-67
2021/12/18 07:11:45;;;;;;;13.77;4.53;;;;;;;-1.59;83.08;99607.63;4850110;29;20471;-73
2021/12/18 07:14:12;;;;;;;15.52;4.03;;;;;;;-1.46;80.56;99632.59;4827591;29;20046;-67
2021/12/18 07:16:39;;;;;;;13.70;4.32;;;;;;;-1.43;80.51;99635.06;4850630;29;20144;-65
2021/12/18 07:19:08;;;;;;;14.32;4.35;;;;;;;-1.64;81.40;99618.44;4910407;23;20058;31
2021/12/18 07:21:34;;;;;;;11.07;3.38;;;;;;;-1.54;81.75;99632.09;4842049;29;20023;-72
2021/12/18 07:24:02;;;;;;;11.45;3.33;;;;;;;-1.63;80.28;99630.75;4824705;29;20144;-70
2021/12/18 07:26:30;;;;;;;11.80;2.25;;;;;;;-1.51;79.62;99655.81;4840999;29;20061;-72
2021/12/18 07:28:56;;;;;;;9.80;2.22;;;;;;;-1.54;80.70;99662.09;4831225;29;20106;-70
2021/12/18 07:31:22;;;;;;;8.65;1.95;;;;;;;-1.60;80.28;99661.56;4839401;29;20058;-69
2021/12/18 07:33:47;;;;;;;14.23;1.92;;;;;;;-1.59;78.74;99657.97;4857486;29;20053;-70
2021/12/18 07:36:14;;;;;;;6.55;1.67;;;;;;;-1.87;80.09;99632.78;4845826;29;20061;-72
2021/12/18 07:38:43;;;;;;;8.38;1.60;;;;;;;-1.79;80.23;99635.97;4790430;29;20132;-71
2021/12/18 07:41:10;;;;;;;7.22;1.98;;;;;;;-1.63;80.41;99654.63;4826279;29;20053;-71
2021/12/18 07:43:36;;;;;;;4.38;1.10;;;;;;;-1.66;78.10;99659.19;4839804;29;20073;-70
2021/12/18 07:46:02;;;;;;;7.13;2.22;;;;;;;-1.56;77.66;99660.47;4817157;29;20178;-68
2021/12/18 07:48:28;;;;;;;5.93;1.27;;;;;;;-1.46;79.37;99667.91;4840510;29;20057;-72
2021/12/18 07:50:54;;;;;;;6.45;1.50;;;;;;;-1.41;77.80;99662.38;4860676;29;20060;-72
2021/12/18 07:53:21;;;;;;;6.22;1.50;;;;;;;-1.33;77.19;99659.34;4841452;29;20073;-70
2021/12/18 07:55:47;;;;;;;5.55;1.42;;;;;;;-1.29;76.02;99651.16;4811448;29;20054;-74
2021/12/18 07:58:13;;;;;;;6.07;2.03;;;;;;;-1.34;76.44;99621.38;4833898;29;20132;-73
2021/12/18 08:00:39;;;;;;;5.03;1.60;;;;;;;-1.31;74.58;99631.81;4821215;29;20140;-70
2021/12/18 08:03:10;;;;;;;6.65;1.63;;;;;;;-1.13;74.43;99650.38;4841407;29;20062;-71
2021/12/18 08:05:36;;;;;;;6.07;1.42;;;;;;;-1.14;74.05;99638.06;4838177;29;20049;-72
2021/12/18 08:08:02;;;;;;;7.45;1.48;;;;;;;-1.16;73.48;99640.78;4810553;29;20065;-72
2021/12/18 08:10:28;;;;;;;6.72;1.58;;;;;;;-1.09;73.30;99644.00;4804956;29;20058;-72
2021/12/18 08:12:54;;;;;;;5.32;1.00;;;;;;;-1.24;73.12;99608.50;4838825;29;20422;-72
2021/12/18 08:15:20;;;;;;;6.53;1.40;;;;;;;-1.06;72.76;99631.44;4808694;29;20503;-72
2021/12/18 08:17:45;;;;;;;8.93;1.50;;;;;;;-1.16;73.34;99602.81;4851100;29;20058;-71
2021/12/18 08:20:12;;;;;;;5.03;1.30;;;;;;;-1.04;73.43;99618.09;4848447;29;20083;-71
2021/12/18 08:22:38;;;;;;;9.73;1.73;;;;;;;-0.98;72.91;99608.03;4834919;29;20062;-71
2021/12/18 08:25:05;;;;;;;8.95;2.42;;;;;;;-1.07;73.09;99616.44;4828354;29;20069;-72
2021/12/18 08:27:31;;;;;;;6.88;1.83;;;;;;;-1.08;74.13;99611.22;4829818;29;20529;-72
2021/12/18 08:29:57;;;;;;;6.82;1.92;;;;;;;-1.17;74.25;99615.22;4814673;29;20100;-72
2021/12/18 08:32:23;;;;;;;6.43;1.48;;;;;;;-1.31;73.43;99600.00;4818094;29;20062;-71
2021/12/18 08:34:49;;;;;;;7.88;1.90;;;;;;;-1.27;74.65;99600.72;4831058;29;20517;-72
2021/12/18 08:37:15;;;;;;;8.20;1.80;;;;;;;-1.12;74.64;99604.38;4841009;29;20058;-72
2021/12/18 08:39:41;;;;;;;4.50;1.40;;;;;;;-1.24;73.80;99574.88;4828380;29;20126;-74
2021/12/18 08:42:07;;;;;;;7.32;1.70;;;;;;;-1.03;73.04;99594.13;4822712;29;20515;-72
2021/12/18 08:44:33;;;;;;;9.40;1.63;;;;;;;-1.22;74.41;99578.28;4826427;29;20125;-71
2021/12/18 08:47:00;;;;;;;5.20;1.40;;;;;;;-1.12;74.12;99589.31;4842338;29;20587;-71
2021/12/18 08:49:26;;;;;;;7.50;1.67;;;;;;;-1.07;76.30;99581.09;4835286;29;20073;-71
2021/12/18 08:51:55;;;;;;;7.45;1.75;;;;;;;-1.19;74.61;99545.47;4834046;29;20053;-72
2021/12/18 08:54:22;;;;;;;10.10;2.88;;;;;;;-1.06;75.01;99574.84;4815602;29;20065;-71
2021/12/18 08:56:48;;;;;;;7.13;1.77;;;;;;;-1.25;74.75;99541.31;4816315;29;20065;-71
2021/12/18 08:59:14;;;;;;;10.05;2.00;;;;;;;-1.28;75.50;99528.25;4829140;29;20053;-72
2021/12/18 09:01:40;;;;;;;8.57;2.28;;;;;;;-1.11;75.58;99547.72;4840619;29;20229;-71
2021/12/18 09:04:06;;;;;;;8.48;1.65;;;;;;;-1.09;75.79;99556.47;4839266;29;20053;-72
2021/12/18 09:06:34;;;;;;;6.93;1.90;;;;;;;-1.19;76.97;99560.53;4827166;29;20093;-72
2021/12/18 09:09:00;;;;;;;5.00;1.35;;;;;;;-1.34;77.16;99531.22;4799799;29;20378;-72
2021/12/18 09:11:25;;;;;;;7.43;1.83;;;;;;;-1.17;78.29;99542.72;4833750;29;20140;-72
2021/12/18 09:13:51;;;;;;;5.13;1.50;;;;;;;-1.40;78.91;99520.06;4828529;29;20064;-71
2021/12/18 09:16:17;;;;;;;6.68;1.95;;;;;;;-1.32;79.02;99534.63;4843126;29;20072;-71
2021/12/18 09:18:43;;;;;;;8.23;1.90;;;;;;;-1.13;78.73;99544.28;4844374;29;20050;-71
2021/12/18 09:21:10;;;;;;;8.88;2.17;;;;;;;-1.22;79.33;99508.50;4810955;29;20072;-73
2021/12/18 09:23:35;;;;;;;7.40;1.80;;;;;;;-1.19;78.37;99539.31;4844923;29;20064;-71
2021/12/18 09:26:01;;;;;;;8.18;1.88;;;;;;;-1.17;79.37;99532.13;4827789;29;20144;-73
2021/12/18 09:28:27;;;;;;;6.32;1.75;;;;;;;-1.37;78.48;99494.25;4825923;29;20046;-71
2021/12/18 09:30:53;;;;;;;6.93;1.60;;;;;;;-1.15;78.97;99535.56;4842693;29;20106;-71
2021/12/18 09:33:20;;;;;;;9.35;2.33;;;;;;;-1.13;80.49;99528.34;4828287;29;20073;-71
2021/12/18 09:35:46;;;;;;;7.13;2.15;;;;;;;-1.14;80.49;99521.34;4828855;29;20053;-71
2021/12/18 09:38:12;;;;;;;8.07;2.30;;;;;;;-1.17;81.35;99517.09;4844957;29;20142;-72
2021/12/18 09:40:38;;;;;;;7.35;1.90;;;;;;;-1.28;82.72;99524.72;4825369;29;20061;-71
2021/12/18 09:43:04;;;;;;;8.18;2.25;;;;;;;-1.51;84.44;99491.44;4848488;29;20133;-71
2021/12/18 09:45:30;;;;;;;10.75;2.03;;;;;;;-1.34;83.91;99512.66;4827127;29;20248;-72
2021/12/18 09:47:57;;;;;;;6.75;1.88;;;;;;;-1.44;84.75;99498.16;4838029;29;20049;-68
2021/12/18 09:50:25;;;;;;;6.78;1.55;;;;;;;-1.51;83.80;99480.84;4822785;29;20064;-72
2021/12/18 09:52:52;;;;;;;7.38;1.90;;;;;;;-1.33;83.40;99511.69;4829215;29;20057;-77
2021/12/18 09:55:19;;;;;;;11.45;2.65;;;;;;;-1.38;83.04;99489.88;4844773;29;20080;-71
2021/12/18 09:57:46;;;;;;;7.20;2.40;;;;;;;-1.49;82.85;99463.09;4829333;29;20046;-69
2021/12/18 10:00:17;;;;;;;6.60;2.10;;;;;;;-1.32;83.46;99494.84;4830814;29;20146;-70
2021/12/18 10:02:43;;;;;;;8.52;1.90;;;;;;;-1.20;81.55;99484.56;4862515;29;20062;-69
2021/12/18 10:05:24;;;;;;;6.05;1.90;;;;;;;-1.09;80.27;99493.66;4843266;29;20578;-68
2021/12/18 10:08:15;;;;;;;14.98;3.72;;;;;;;-1.06;81.75;99489.97;4863359;29;20062;-71
2021/12/18 10:11:06;;;;;;;16.42;5.78;;;;;;;-1.02;80.14;99499.50;4842162;29;20133;-70
2021/12/18 10:13:57;;;;;;;18.55;6.25;;;;;;;-1.01;79.91;99485.28;4883245;23;20124;-72
2021/12/18 10:16:24;;;;;;;15.90;3.45;;;;;;;-1.18;79.11;99487.97;4864423;29;20064;-71
2021/12/18 10:18:50;;;;;;;10.77;2.60;;;;;;;-1.29;79.37;99470.81;4837761;29;20065;-69
2021/12/18 10:21:20;;;;;;;11.80;2.78;;;;;;;-1.22;79.27;99477.53;4858467;29;20089;-70
2021/12/18 10:23:47;;;;;;;8.90;1.80;;;;;;;-1.35;78.60;99468.53;4827150;29;20031;-72
2021/12/18 10:26:39;;;;;;;6.85;1.80;;;;;;;-1.22;78.34;99476.66;4863559;29;20053;-67
2021/12/18 10:29:31;;;;;;;6.80;1.98;;;;;;;-1.19;77.88;99483.63;4836601;29;20056;-75
2021/12/18 10:32:16;;;;;;;8.35;1.80;;;;;;;-1.74;79.03;99406.06;5092935;23;20174;-70
2021/12/18 10:34:42;;;;;;;;;;;;;;;-1.30;79.14;99485.03;4828905;29;20050;-72
2021/12/18 10:37:14;;;;;;;6.47;2.00;;;;;;;-1.52;80.30;99452.63;5047997;23;19928;-74
2021/12/18 10:40:02;;;;;;;8.32;2.42;;;;;;;-1.46;80.66;99462.94;4858193;29;20091;-71
2021/12/18 10:42:36;;;;;;;9.98;2.58;;;;;;;-1.38;80.73;99473.97;4844841;29;20049;-69
2021/12/18 10:45:11;;;;;;;8.05;2.53;;;;;;;-1.32;81.14;99478.94;4854040;29;20042;-70
2021/12/18 10:48:04;;;;;;;8.50;2.50;;;;;;;-1.33;81.00;99474.59;4841122;29;20125;-69
2021/12/18 10:50:35;;;;;;;7.88;2.53;;;;;;;-1.42;81.31;99445.91;4859776;29;20116;-70
2021/12/18 10:53:02;;;;;;;6.47;1.75;;;;;;;-1.29;81.11;99476.13;4860033;29;20049;-73
2021/12/18 10:55:35;;;;;;;21.27;2.78;;;;;;;-1.43;81.60;99441.53;4859446;29;20087;-72
2021/12/18 10:58:04;;;;;;;8.35;2.35;;;;;;;-1.22;81.51;99469.56;4855408;29;20121;-71
2021/12/18 11:00:40;;;;;;;8.98;2.42;;;;;;;-1.36;83.79;99464.13;4864233;29;20132;-71
2021/12/18 11:03:18;;;;;;;8.15;2.33;;;;;;;-1.61;79.49;99440.72;4844939;29;20044;-71
2021/12/18 11:06:01;;;;;;;7.60;1.95;;;;;;;-1.50;80.25;99464.00;4868162;29;20148;-70
2021/12/18 11:08:27;;;;;;;9.10;2.30;;;;;;;-1.50;79.92;99451.63;4857458;29;20197;-70
2021/12/18 11:13:51;;;;;;;7.55;1.77;;;;;;;-1.38;79.54;99463.38;4838001;29;20049;-71
2021/12/18 11:16:18;;;;;;;6.78;2.00;;;;;;;-1.44;79.32;99460.19;4842840;29;20087;-71
2021/12/18 11:18:46;;;;;;;8.52;1.90;;;;;;;-1.66;80.40;99426.84;4841616;29;20135;-71
2021/12/18 11:21:12;;;;;;;7.47;2.00;;;;;;;-1.57;79.76;99449.34;4868745;29;20045;-71
2021/12/18 11:23:47;;;;;;;9.40;2.60;;;;;;;-1.65;80.05;99457.69;4868381;29;20058;-70
2021/12/18 11:26:14;;;;;;;9.10;2.33;;;;;;;-1.83;79.65;99427.75;4846758;29;20500;-75
2021/12/18 11:28:46;;;;;;;9.80;2.20;;;;;;;-1.75;80.89;99446.75;4861778;29;20079;-68
2021/12/18 11:31:12;;;;;;;8.60;2.20;;;;;;;-1.76;80.30;99454.75;4864036;29;20053;-69
2021/12/18 11:33:39;;;;;;;6.07;1.70;;;;;;;-1.73;79.78;99450.16;4855404;29;20115;-70
2021/12/18 11:36:07;;;;;;;6.30;1.80;;;;;;;-1.79;78.40;99446.94;4853858;29;20126;-67
2021/12/18 11:38:35;;;;;;;10.65;1.52;;;;;;;-1.79;77.48;99441.66;4857070;29;20052;-69
2021/12/18 11:41:02;;;;;;;5.32;1.40;;;;;;;-1.79;77.05;99439.00;4854523;29;20566;-69
2021/12/18 11:43:37;;;;;;;5.50;1.30;;;;;;;-1.66;74.95;99449.84;4826273;29;20068;-70
2021/12/18 11:46:37;;;;;;;4.93;1.30;;;;;;;-1.68;73.98;99446.41;4861770;29;20112;-68
2021/12/18 11:49:05;;;;;;;7.25;1.23;;;;;;;-1.90;74.83;99436.94;4853896;29;20094;-67
2021/12/18 11:51:32;;;;;;;4.35;1.20;;;;;;;-1.86;75.93;99446.44;4848382;29;20057;-69
2021/12/18 11:53:59;;;;;;;5.97;1.38;;;;;;;-1.90;74.86;99436.94;4858860;29;20062;-68
2021/12/18 11:56:25;;;;;;;6.03;1.30;;;;;;;-1.89;75.09;99441.28;4834046;29;20050;-68
2021/12/18 11:58:52;;;;;;;7.68;1.50;;;;;;;-1.97;76.06;99430.22;4870563;29;20053;-68
2021/12/18 12:01:25;;;;;;;6.10;1.60;;;;;;;-1.94;76.17;99440.66;4860806;29;20119;-68
2021/12/18 12:03:50;;;;;;;8.23;1.90;;;;;;;-1.93;74.94;99441.53;4851429;29;20062;-68
2021/12/18 12:06:27;;;;;;;6.70;1.60;;;;;;;-2.05;74.43;99433.28;4852557;29;20063;-68
2021/12/18 12:09:34;;;;;;;5.85;1.40;;;;;;;-2.07;74.74;99421.03;4862868;29;20060;-69
2021/12/18 12:12:11;;;;;;;5.30;1.30;;;;;;;-2.11;75.46;99408.88;4877573;29;20474;-68
2021/12/18 12:14:42;;;;;;;6.60;1.63;;;;;;;-2.10;74.94;99402.66;4862054;29;20082;-68
2021/12/18 12:17:10;;;;;;;5.68;1.50;;;;;;;-2.05;75.22;99411.19;4850237;29;20085;-69
2021/12/18 12:19:35;;;;;;;7.07;1.70;;;;;;;-1.96;75.04;99402.81;4854697;29;20084;-69